Adrian, West Virginia
Current Conditions -  °F | °C
As of 9:55 AM on Wednesday 26 Nov 2014 (Local Time) from KW22 Reporting Station
Light Rain Light Rain  
Wind Chill: 32°   Ceiling: NA
Heat Index: 32°   Visibility: 0.25mi
Dew Point: 32°   Wind: 0mph
Humidity: 100%   Direction: NA
Pressure: 30.03"   Gusts: NA
Location:  38.91°N, 80.28°W
Report Text: KW22 261455Z AUTO 00000KT 1/4SM -RA 00/00 A3003 RMK AO2
Loading
Personal Weather Stations






























Interactive Weather Map New forecast layout! Learn more

10-Day Weather Forecast

Advertisements
Track Severe Weather on mobile